Time;durP1;ratioP1;P1;durP2;ratioP2;P2;SDS_P1;SDS_P2;PMS_P1;PMS_P2;Temp;Humidity;BMP_temperature;BMP_pressure;BME280_temperature;BME280_humidity;BME280_pressure;Samples;Min_cycle;Max_cycle;Signal;HPM_P1;HPM_P2
2022/09/21 00:02:20;;;;;;;6.25;5.85;;;;;;;;;;5035077;28;24447;-47
2022/09/21 00:04:45;;;;;;;6.05;5.65;;;;;;;;;;5040812;28;24427;-48
2022/09/21 00:07:10;;;;;;;6.43;6.00;;;;;;;;;;5042201;28;25016;-48
2022/09/21 00:09:35;;;;;;;7.03;6.53;;;;;;;;;;5033612;28;24426;-47
2022/09/21 00:12:01;;;;;;;7.05;6.55;;;;;;;;;;5045440;28;24520;-48
2022/09/21 00:14:27;;;;;;;7.00;6.40;;;;;;;;;;5037824;28;25006;-49
2022/09/21 00:16:52;;;;;;;6.55;6.15;;;;;;;;;;5041038;28;24777;-48
2022/09/21 00:19:18;;;;;;;8.13;7.53;;;;;;;;;;5042484;28;24459;-46
2022/09/21 00:21:43;;;;;;;8.30;7.70;;;;;;;;;;5046132;28;24418;-47
2022/09/21 00:24:08;;;;;;;6.80;6.30;;;;;;;;;;5041232;28;24488;-46
2022/09/21 00:26:33;;;;;;;6.90;6.40;;;;;;;;;;5030578;28;24446;-48
2022/09/21 00:29:00;;;;;;;6.20;5.80;;;;;;;;;;5035642;28;24430;-48
2022/09/21 00:31:25;;;;;;;6.40;5.95;;;;;;;;;;5039028;28;24443;-48
2022/09/21 00:33:51;;;;;;;6.77;6.27;;;;;;;;;;5031666;28;24451;-49
2022/09/21 00:36:17;;;;;;;5.53;5.23;;;;;;;;;;5034947;28;24492;-48
2022/09/21 00:38:43;;;;;;;6.95;6.45;;;;;;;;;;5030446;28;24430;-48
2022/09/21 00:41:09;;;;;;;7.10;6.60;;;;;;;;;;5031607;28;25053;-48
2022/09/21 00:43:43;;;;;;;6.30;5.90;;;;;;;;;;5042218;28;24431;-47
2022/09/21 00:46:15;;;;;;;6.55;6.05;;;;;;;;;;5038849;28;21285;-48
2022/09/21 00:48:41;;;;;;;6.15;5.75;;;;;;;;;;5029386;28;24465;-48
2022/09/21 00:51:07;;;;;;;6.60;6.10;;;;;;;;;;5039818;28;24566;-47
2022/09/21 00:53:33;;;;;;;5.70;5.30;;;;;;;;;;5042560;28;24884;-46
2022/09/21 00:55:59;;;;;;;6.00;5.60;;;;;;;;;;5044597;28;24419;-47
2022/09/21 00:58:27;;;;;;;5.93;5.53;;;;;;;;;;5041627;28;24434;-46
2022/09/21 01:00:52;;;;;;;5.90;5.50;;;;;;;;;;5043162;28;25025;-46
2022/09/21 01:03:17;;;;;;;5.93;5.53;;;;;;;;;;5043482;28;24526;-46
2022/09/21 01:05:42;;;;;;;6.40;6.00;;;;;;;;;;5044592;28;25129;-46
2022/09/21 01:08:11;;;;;;;6.00;5.60;;;;;;;;;;5037461;28;24422;-46
2022/09/21 01:10:59;;;;;;;5.97;5.50;;;;;;;;;;5043270;28;24528;-47
2022/09/21 01:13:46;;;;;;;5.95;5.55;;;;;;;;;;5048001;28;24439;-47
2022/09/21 01:16:14;;;;;;;6.18;5.78;;;;;;;;;;5044029;28;24415;-48
2022/09/21 01:18:51;;;;;;;5.53;5.13;;;;;;;;;;5031680;28;24435;-47
2022/09/21 01:21:25;;;;;;;6.40;5.90;;;;;;;;;;5036579;28;24426;-45
2022/09/21 01:24:10;;;;;;;5.67;5.30;;;;;;;;;;5037789;28;24867;-47
2022/09/21 01:26:55;;;;;;;5.60;5.30;;;;;;;;;;5044918;28;24876;-47
2022/09/21 01:29:31;;;;;;;6.00;5.60;;;;;;;;;;5038174;28;24875;-47
2022/09/21 01:31:59;;;;;;;5.63;5.25;;;;;;;;;;5041311;28;24432;-47
2022/09/21 01:34:59;;;;;;;6.00;5.60;;;;;;;;;;5039085;28;24423;-46
2022/09/21 01:37:32;;;;;;;5.88;5.47;;;;;;;;;;5070306;28;24472;-47
2022/09/21 01:39:59;;;;;;;6.40;5.80;;;;;;;;;;5046301;28;24863;-45
2022/09/21 01:42:25;;;;;;;5.90;5.50;;;;;;;;;;5038432;28;24472;-48
2022/09/21 01:44:50;;;;;;;6.70;6.20;;;;;;;;;;5029323;28;24486;-47
2022/09/21 01:47:16;;;;;;;6.50;6.10;;;;;;;;;;5039911;28;24419;-47
2022/09/21 01:49:44;;;;;;;6.37;5.97;;;;;;;;;;5037531;28;24481;-48
2022/09/21 01:52:13;;;;;;;6.40;5.90;;;;;;;;;;5035257;28;24439;-47
2022/09/21 01:54:41;;;;;;;6.32;5.82;;;;;;;;;;5043992;28;24414;-47
2022/09/21 01:57:10;;;;;;;6.03;5.57;;;;;;;;;;5042911;28;24453;-47
2022/09/21 01:59:48;;;;;;;6.13;5.63;;;;;;;;;;5046095;28;24454;-47
2022/09/21 02:02:15;;;;;;;6.00;5.60;;;;;;;;;;5037891;28;24446;-47
2022/09/21 02:04:41;;;;;;;6.00;5.60;;;;;;;;;;5044228;28;24995;-48
2022/09/21 02:07:06;;;;;;;6.37;5.97;;;;;;;;;;5038742;28;24431;-47
2022/09/21 02:09:32;;;;;;;6.20;5.70;;;;;;;;;;5043016;28;24419;-48
2022/09/21 02:11:59;;;;;;;6.77;6.27;;;;;;;;;;5035309;28;24449;-46
2022/09/21 02:14:24;;;;;;;6.28;5.88;;;;;;;;;;5037839;28;24777;-46
2022/09/21 02:16:55;;;;;;;6.50;6.10;;;;;;;;;;5041849;28;24428;-47
2022/09/21 02:19:29;;;;;;;6.30;5.90;;;;;;;;;;5038626;28;24505;-47
2022/09/21 02:22:02;;;;;;;6.40;6.00;;;;;;;;;;5032174;28;25076;-46
2022/09/21 02:24:27;;;;;;;6.20;5.80;;;;;;;;;;5041530;28;24466;-47
2022/09/21 02:26:56;;;;;;;6.60;6.10;;;;;;;;;;5040117;28;24468;-47
2022/09/21 02:29:27;;;;;;;6.15;5.75;;;;;;;;;;5045566;28;24423;-46
2022/09/21 02:32:16;;;;;;;6.40;6.00;;;;;;;;;;5044741;28;24692;-47
2022/09/21 02:34:48;;;;;;;6.10;5.70;;;;;;;;;;5044729;28;24473;-47
2022/09/21 02:37:32;;;;;;;6.90;6.40;;;;;;;;;;5040857;28;24538;-46
2022/09/21 02:40:03;;;;;;;6.25;5.85;;;;;;;;;;5046390;28;24434;-45
2022/09/21 02:42:32;;;;;;;6.07;5.68;;;;;;;;;;5045430;28;24442;-47
2022/09/21 02:45:02;;;;;;;6.10;5.70;;;;;;;;;;5041246;28;24978;-47
2022/09/21 02:47:33;;;;;;;6.40;5.80;;;;;;;;;;5045099;28;24501;-45
2022/09/21 02:50:01;;;;;;;6.63;6.13;;;;;;;;;;5041066;28;24431;-47
2022/09/21 02:52:28;;;;;;;6.65;6.25;;;;;;;;;;5040920;28;25034;-47
2022/09/21 02:54:54;;;;;;;6.40;6.00;;;;;;;;;;5043004;28;24554;-47
2022/09/21 02:57:21;;;;;;;6.32;5.82;;;;;;;;;;5041830;28;24510;-47
2022/09/21 02:59:46;;;;;;;6.30;5.90;;;;;;;;;;5032529;28;24433;-48
2022/09/21 03:02:12;;;;;;;6.43;6.03;;;;;;;;;;5043595;28;24458;-47
2022/09/21 03:04:40;;;;;;;6.17;5.77;;;;;;;;;;5043755;28;24431;-48
2022/09/21 03:07:05;;;;;;;6.55;6.05;;;;;;;;;;5045320;28;24423;-48
2022/09/21 03:09:30;;;;;;;6.90;6.40;;;;;;;;;;5044810;28;24468;-47
2022/09/21 03:11:55;;;;;;;6.28;5.85;;;;;;;;;;5046491;28;24557;-47
2022/09/21 03:14:21;;;;;;;6.43;6.00;;;;;;;;;;5034577;28;25067;-47
2022/09/21 03:16:47;;;;;;;5.90;5.50;;;;;;;;;;5031206;28;24650;-46
2022/09/21 03:19:12;;;;;;;5.20;4.90;;;;;;;;;;5037068;28;24435;-48
2022/09/21 03:21:37;;;;;;;6.00;5.50;;;;;;;;;;5048167;28;24395;-48
2022/09/21 03:24:02;;;;;;;5.63;5.23;;;;;;;;;;5031488;28;24546;-48
2022/09/21 03:26:28;;;;;;;5.37;5.03;;;;;;;;;;5045677;28;24427;-49
2022/09/21 03:28:54;;;;;;;5.50;5.10;;;;;;;;;;5029468;28;24496;-47
2022/09/21 03:31:19;;;;;;;6.27;5.77;;;;;;;;;;5044195;28;24493;-47
2022/09/21 03:33:44;;;;;;;5.90;5.50;;;;;;;;;;5037807;28;24429;-47
2022/09/21 03:36:10;;;;;;;5.97;5.57;;;;;;;;;;5037936;28;24978;-47
2022/09/21 03:38:36;;;;;;;5.50;5.10;;;;;;;;;;5039030;28;24451;-47
2022/09/21 03:41:01;;;;;;;5.47;5.15;;;;;;;;;;5044959;28;25245;-47
2022/09/21 03:43:26;;;;;;;5.70;5.30;;;;;;;;;;5042547;28;24427;-48
2022/09/21 03:45:52;;;;;;;5.60;5.20;;;;;;;;;;5046530;28;25059;-48
2022/09/21 03:48:17;;;;;;;5.90;5.50;;;;;;;;;;5046500;28;24542;-47
2022/09/21 03:50:42;;;;;;;5.90;5.40;;;;;;;;;;5041895;28;24450;-47
2022/09/21 03:53:09;;;;;;;6.20;5.70;;;;;;;;;;5045960;28;24489;-48
2022/09/21 03:55:34;;;;;;;6.07;5.60;;;;;;;;;;5056870;28;24549;-48
2022/09/21 03:57:59;;;;;;;5.75;5.35;;;;;;;;;;5039656;28;24519;-48
2022/09/21 04:00:24;;;;;;;6.40;5.90;;;;;;;;;;5054905;28;24410;-48
2022/09/21 04:02:49;;;;;;;5.80;5.40;;;;;;;;;;5032387;28;24924;-47
2022/09/21 04:05:15;;;;;;;5.60;5.20;;;;;;;;;;5036422;28;24549;-46
2022/09/21 04:07:41;;;;;;;6.23;5.73;;;;;;;;;;5041542;28;24427;-46
2022/09/21 04:10:07;;;;;;;6.40;5.90;;;;;;;;;;5042190;28;24447;-45
2022/09/21 04:12:33;;;;;;;6.65;6.22;;;;;;;;;;5039572;28;24537;-46
2022/09/21 04:14:58;;;;;;;6.90;6.40;;;;;;;;;;5034395;28;25197;-45
2022/09/21 04:17:24;;;;;;;6.40;5.90;;;;;;;;;;5039855;28;24494;-46
2022/09/21 04:19:49;;;;;;;7.73;7.10;;;;;;;;;;5033676;28;24977;-47
2022/09/21 04:22:14;;;;;;;6.30;5.90;;;;;;;;;;5042731;28;24412;-47
2022/09/21 04:24:42;;;;;;;8.00;7.30;;;;;;;;;;5043969;28;24431;-46
2022/09/21 04:27:07;;;;;;;6.80;6.20;;;;;;;;;;5043395;28;24914;-47
2022/09/21 04:29:33;;;;;;;7.70;7.10;;;;;;;;;;5038367;28;24997;-48
2022/09/21 04:31:58;;;;;;;7.95;7.35;;;;;;;;;;5027716;28;24946;-47
2022/09/21 04:34:23;;;;;;;7.53;6.97;;;;;;;;;;5039085;28;24427;-48
2022/09/21 04:36:48;;;;;;;8.57;7.97;;;;;;;;;;5023566;28;25048;-47
2022/09/21 04:39:13;;;;;;;7.80;7.20;;;;;;;;;;5030562;28;24431;-47
2022/09/21 04:41:38;;;;;;;8.40;7.70;;;;;;;;;;5027291;28;24431;-47
2022/09/21 04:44:04;;;;;;;9.80;9.00;;;;;;;;;;5038307;28;24512;-47
2022/09/21 04:46:29;;;;;;;8.30;7.60;;;;;;;;;;5030261;28;24507;-46
2022/09/21 04:48:54;;;;;;;8.77;8.07;;;;;;;;;;5023360;28;25040;-47
2022/09/21 04:51:19;;;;;;;9.13;8.33;;;;;;;;;;5031712;28;24435;-47
2022/09/21 04:53:44;;;;;;;8.50;7.80;;;;;;;;;;5030717;28;24423;-46
2022/09/21 04:56:12;;;;;;;8.40;7.77;;;;;;;;;;5025710;28;24747;-47
2022/09/21 04:58:37;;;;;;;8.68;7.97;;;;;;;;;;5019949;28;24470;-47
2022/09/21 05:01:04;;;;;;;8.75;8.05;;;;;;;;;;5038363;28;24475;-47
2022/09/21 05:03:30;;;;;;;8.88;8.18;;;;;;;;;;5028398;28;24790;-45
2022/09/21 05:05:56;;;;;;;9.05;8.25;;;;;;;;;;5038882;28;24434;-47
2022/09/21 05:10:01;;;;;;;8.23;7.63;;;;;;;;;;5030121;28;24442;-46
2022/09/21 05:11:11;;;;;;;10.00;9.20;;;;;;;;;;5025747;28;24447;-47
2022/09/21 05:13:37;;;;;;;10.15;9.35;;;;;;;;;;5030838;28;24932;-46
2022/09/21 05:16:02;;;;;;;9.93;9.03;;;;;;;;;;5027152;28;24431;-46
2022/09/21 05:18:27;;;;;;;9.95;9.25;;;;;;;;;;5026974;28;24505;-46
2022/09/21 05:20:53;;;;;;;9.47;8.77;;;;;;;;;;5031837;28;24485;-46
2022/09/21 05:23:18;;;;;;;8.90;8.30;;;;;;;;;;5035032;28;24424;-46
2022/09/21 05:25:43;;;;;;;9.60;8.80;;;;;;;;;;5030957;28;24969;-47
2022/09/21 05:28:08;;;;;;;8.98;8.27;;;;;;;;;;5045895;28;24414;-46
2022/09/21 05:30:34;;;;;;;10.80;9.90;;;;;;;;;;5033022;28;24435;-47
2022/09/21 05:33:02;;;;;;;8.47;7.87;;;;;;;;;;5033874;28;24458;-48
2022/09/21 05:35:32;;;;;;;8.02;7.43;;;;;;;;;;5035825;28;24458;-47
2022/09/21 05:38:02;;;;;;;8.10;7.50;;;;;;;;;;5030594;28;24430;-47
2022/09/21 05:40:27;;;;;;;8.32;7.63;;;;;;;;;;5038042;28;24431;-48
2022/09/21 05:42:53;;;;;;;8.30;7.70;;;;;;;;;;5033832;28;24418;-47
2022/09/21 05:45:19;;;;;;;8.00;7.40;;;;;;;;;;5046090;28;24404;-47
2022/09/21 05:47:49;;;;;;;7.90;7.30;;;;;;;;;;5038119;28;24423;-47
2022/09/21 05:50:47;;;;;;;7.82;7.13;;;;;;;;;;5043871;28;24467;-46
2022/09/21 05:53:18;;;;;;;8.02;7.43;;;;;;;;;;5053616;28;24484;-48
2022/09/21 05:55:50;;;;;;;8.65;7.95;;;;;;;;;;5045931;28;24415;-47
2022/09/21 05:58:21;;;;;;;8.10;7.50;;;;;;;;;;5038268;28;24411;-46
2022/09/21 06:01:05;;;;;;;7.33;6.73;;;;;;;;;;5041255;28;24822;-46
2022/09/21 06:03:31;;;;;;;8.00;7.40;;;;;;;;;;5029283;28;24424;-46
2022/09/21 06:05:56;;;;;;;7.82;7.20;;;;;;;;;;5035757;28;24423;-47
2022/09/21 06:08:22;;;;;;;8.37;7.67;;;;;;;;;;5037259;28;24477;-47
2022/09/21 06:10:47;;;;;;;8.60;7.90;;;;;;;;;;5033347;28;24782;-47
2022/09/21 06:13:12;;;;;;;9.17;8.47;;;;;;;;;;5045790;28;24411;-47
2022/09/21 06:15:38;;;;;;;10.33;9.43;;;;;;;;;;5034600;28;24592;-47
2022/09/21 06:18:06;;;;;;;9.00;8.30;;;;;;;;;;5040725;28;25028;-46
2022/09/21 06:20:32;;;;;;;10.10;9.30;;;;;;;;;;5031861;28;24463;-48
2022/09/21 06:23:10;;;;;;;9.83;9.03;;;;;;;;;;5028998;28;24459;-47
2022/09/21 06:25:35;;;;;;;9.75;9.00;;;;;;;;;;5040593;28;24481;-47
2022/09/21 06:28:04;;;;;;;9.90;9.00;;;;;;;;;;5045556;28;24998;-47
2022/09/21 06:30:32;;;;;;;10.15;9.27;;;;;;;;;;5041647;28;24412;-47
2022/09/21 06:32:57;;;;;;;9.30;8.60;;;;;;;;;;5025666;28;24519;-47
2022/09/21 06:35:23;;;;;;;10.03;9.03;;;;;;;;;;5025552;28;24542;-47
2022/09/21 06:37:48;;;;;;;7.97;7.38;;;;;;;;;;5025820;28;24380;-47
2022/09/21 06:40:13;;;;;;;9.77;9.02;;;;;;;;;;5026195;28;24934;-46
2022/09/21 06:42:38;;;;;;;9.50;8.70;;;;;;;;;;5043344;28;24487;-46
2022/09/21 06:45:03;;;;;;;9.48;8.77;;;;;;;;;;5048889;28;24817;-47
2022/09/21 06:47:29;;;;;;;8.40;7.80;;;;;;;;;;5048884;28;24439;-47
2022/09/21 06:49:54;;;;;;;8.27;7.68;;;;;;;;;;5049273;28;24403;-47
2022/09/21 06:52:19;;;;;;;9.43;8.63;;;;;;;;;;5040166;28;24442;-47
2022/09/21 06:54:44;;;;;;;8.85;8.15;;;;;;;;;;5029092;28;24466;-46
2022/09/21 06:57:09;;;;;;;8.60;8.00;;;;;;;;;;5028845;28;24938;-47
2022/09/21 06:59:34;;;;;;;7.90;7.30;;;;;;;;;;5029148;28;24439;-47
2022/09/21 07:02:00;;;;;;;8.18;7.57;;;;;;;;;;5030248;28;24431;-46
2022/09/21 07:04:25;;;;;;;8.10;7.40;;;;;;;;;;5040744;28;24453;-47
2022/09/21 07:06:50;;;;;;;7.40;6.90;;;;;;;;;;5047117;28;24754;-46
2022/09/21 07:09:16;;;;;;;8.50;7.70;;;;;;;;;;5048330;28;24977;-47
2022/09/21 07:11:41;;;;;;;9.50;8.68;;;;;;;;;;5047728;28;24515;-46
2022/09/21 07:14:06;;;;;;;8.33;7.63;;;;;;;;;;5048263;28;24399;-46
2022/09/21 07:16:32;;;;;;;7.70;7.00;;;;;;;;;;5048063;28;24964;-46
2022/09/21 07:18:57;;;;;;;7.50;6.90;;;;;;;;;;5046473;28;24518;-47
2022/09/21 07:21:22;;;;;;;7.40;6.90;;;;;;;;;;5046630;28;24487;-46
2022/09/21 07:23:47;;;;;;;7.60;6.90;;;;;;;;;;5047525;28;24672;-48
2022/09/21 07:26:13;;;;;;;6.90;6.40;;;;;;;;;;5048329;28;24409;-47
2022/09/21 07:28:38;;;;;;;8.83;8.00;;;;;;;;;;5047898;28;24461;-47
2022/09/21 07:31:08;;;;;;;8.20;7.50;;;;;;;;;;5047858;28;24423;-47
2022/09/21 07:33:33;;;;;;;8.63;7.82;;;;;;;;;;5047531;28;24398;-48
2022/09/21 07:35:59;;;;;;;8.02;7.32;;;;;;;;;;5048010;28;24412;-47
2022/09/21 07:38:24;;;;;;;8.98;8.20;;;;;;;;;;5047738;28;24390;-48
2022/09/21 07:40:50;;;;;;;8.10;7.40;;;;;;;;;;5047706;28;24490;-47
2022/09/21 07:43:15;;;;;;;7.50;6.90;;;;;;;;;;5047808;28;24881;-47
2022/09/21 07:45:40;;;;;;;6.97;6.37;;;;;;;;;;5047320;28;24509;-48
2022/09/21 07:48:07;;;;;;;6.97;6.47;;;;;;;;;;5047755;28;24837;-48
2022/09/21 07:50:33;;;;;;;6.78;6.28;;;;;;;;;;5047959;28;24387;-47
2022/09/21 07:52:58;;;;;;;6.90;6.30;;;;;;;;;;5047418;28;24407;-46
2022/09/21 07:55:23;;;;;;;6.67;6.17;;;;;;;;;;5045973;28;24402;-47
2022/09/21 08:00:34;;;;;;;6.50;6.00;;;;;;;;;;5047134;28;24429;-48
2022/09/21 08:03:00;;;;;;;6.38;5.88;;;;;;;;;;5035639;28;24501;-48
2022/09/21 08:05:25;;;;;;;6.60;6.10;;;;;;;;;;5042391;28;24466;-48
2022/09/21 08:07:53;;;;;;;5.80;5.30;;;;;;;;;;5047220;28;24426;-48
2022/09/21 08:10:18;;;;;;;6.32;5.75;;;;;;;;;;5047060;28;24407;-48
2022/09/21 08:12:44;;;;;;;6.00;5.50;;;;;;;;;;5047140;28;24404;-48
2022/09/21 08:15:10;;;;;;;6.15;5.60;;;;;;;;;;5031664;28;25035;-47
2022/09/21 08:17:37;;;;;;;6.10;5.50;;;;;;;;;;5027283;28;24427;-47
2022/09/21 08:20:02;;;;;;;6.43;5.82;;;;;;;;;;5027015;28;24933;-47
2022/09/21 08:22:27;;;;;;;6.43;5.93;;;;;;;;;;5027543;28;24423;-48
2022/09/21 08:24:52;;;;;;;7.18;6.47;;;;;;;;;;5028309;28;24432;-47
2022/09/21 08:27:19;;;;;;;6.35;5.85;;;;;;;;;;5027407;28;24575;-47
2022/09/21 08:29:44;;;;;;;7.20;6.60;;;;;;;;;;5027167;28;24410;-47
2022/09/21 08:32:10;;;;;;;6.60;6.00;;;;;;;;;;5027048;28;24431;-46
2022/09/21 08:34:35;;;;;;;5.90;5.47;;;;;;;;;;5027805;28;24628;-48
2022/09/21 08:37:00;;;;;;;6.45;5.95;;;;;;;;;;5045842;28;24442;-47
2022/09/21 08:39:25;;;;;;;6.80;6.20;;;;;;;;;;5046834;28;24402;-47
2022/09/21 08:42:00;;;;;;;7.15;6.60;;;;;;;;;;5046920;28;24783;-47
2022/09/21 08:44:32;;;;;;;7.00;6.40;;;;;;;;;;5046595;28;24404;-46
2022/09/21 08:47:02;;;;;;;6.40;5.90;;;;;;;;;;5031149;28;24818;-46
2022/09/21 08:49:28;;;;;;;7.18;6.47;;;;;;;;;;5027139;28;24396;-48
2022/09/21 08:51:55;;;;;;;7.40;6.70;;;;;;;;;;5026490;28;24423;-47
2022/09/21 08:54:25;;;;;;;6.43;5.82;;;;;;;;;;5031555;28;24805;-46
2022/09/21 08:56:51;;;;;;;5.57;5.15;;;;;;;;;;5034515;28;24428;-47
2022/09/21 08:59:17;;;;;;;6.60;6.00;;;;;;;;;;5026994;28;24396;-48
2022/09/21 09:01:42;;;;;;;6.03;5.53;;;;;;;;;;5026368;28;24503;-46
2022/09/21 09:04:13;;;;;;;4.40;4.10;;;;;;;;;;5027178;28;25091;-48
2022/09/21 09:06:44;;;;;;;5.80;5.30;;;;;;;;;;5045841;28;25008;-49
2022/09/21 09:09:25;;;;;;;5.90;4.85;;;;;;;;;;5046374;28;24506;-48
2022/09/21 09:12:03;;;;;;;5.00;4.60;;;;;;;;;;5046141;28;24443;-48
2022/09/21 09:14:37;;;;;;;5.07;4.57;;;;;;;;;;5045431;28;24420;-48
2022/09/21 09:17:18;;;;;;;4.80;4.40;;;;;;;;;;5026527;28;24479;-47
2022/09/21 09:19:46;;;;;;;4.17;3.77;;;;;;;;;;5026177;28;24794;-48
2022/09/21 09:22:14;;;;;;;4.10;3.70;;;;;;;;;;5026332;28;24392;-48
2022/09/21 09:24:49;;;;;;;4.15;3.85;;;;;;;;;;5026042;28;24436;-47
2022/09/21 09:27:15;;;;;;;4.03;3.72;;;;;;;;;;5026779;28;25031;-48
2022/09/21 09:29:53;;;;;;;4.47;4.07;;;;;;;;;;5026302;28;24410;-47
2022/09/21 09:32:23;;;;;;;3.85;3.47;;;;;;;;;;5025795;28;24511;-48
2022/09/21 09:34:52;;;;;;;3.60;3.30;;;;;;;;;;5026038;28;24411;-47
2022/09/21 09:37:19;;;;;;;3.97;3.67;;;;;;;;;;5041014;28;24459;-47
2022/09/21 09:39:48;;;;;;;3.90;3.60;;;;;;;;;;5046193;28;24758;-47
2022/09/21 09:42:22;;;;;;;3.33;2.97;;;;;;;;;;5045853;28;24757;-47
2022/09/21 09:44:53;;;;;;;3.42;3.13;;;;;;;;;;5045644;28;24441;-47
2022/09/21 09:47:37;;;;;;;3.80;3.50;;;;;;;;;;5034729;28;24427;-48
2022/09/21 09:50:10;;;;;;;4.00;3.70;;;;;;;;;;5025881;28;24439;-47
2022/09/21 09:52:35;;;;;;;4.93;3.50;;;;;;;;;;5025765;28;24997;-47
2022/09/21 09:55:14;;;;;;;3.60;3.30;;;;;;;;;;5025502;28;24470;-46
2022/09/21 09:57:39;;;;;;;3.10;2.90;;;;;;;;;;5034750;28;24514;-48
2022/09/21 10:00:10;;;;;;;3.17;2.70;;;;;;;;;;5046099;28;24396;-47
2022/09/21 10:02:44;;;;;;;2.80;2.60;;;;;;;;;;5045937;28;24395;-47
2022/09/21 10:05:17;;;;;;;2.55;2.30;;;;;;;;;;5045653;28;24410;-47
2022/09/21 10:07:44;;;;;;;2.80;2.60;;;;;;;;;;5044128;28;24554;-48
2022/09/21 10:10:28;;;;;;;3.50;3.20;;;;;;;;;;5046096;28;24557;-48
2022/09/21 10:12:54;;;;;;;2.80;2.60;;;;;;;;;;5045516;28;24476;-48
2022/09/21 10:15:22;;;;;;;3.10;2.90;;;;;;;;;;5045829;28;24382;-46
2022/09/21 10:17:55;;;;;;;3.10;2.80;;;;;;;;;;5046024;28;24391;-47
2022/09/21 10:20:20;;;;;;;2.97;2.08;;;;;;;;;;5048947;28;24415;-47
2022/09/21 10:22:47;;;;;;;2.55;2.35;;;;;;;;;;5049248;28;24407;-48
2022/09/21 10:25:15;;;;;;;2.90;2.60;;;;;;;;;;5049294;28;24395;-46
2022/09/21 10:27:42;;;;;;;2.60;2.40;;;;;;;;;;5049409;28;24853;-47
2022/09/21 10:30:27;;;;;;;2.70;2.50;;;;;;;;;;5032648;28;24784;-45
2022/09/21 10:32:54;;;;;;;2.95;2.75;;;;;;;;;;5028810;28;24463;-45
2022/09/21 10:35:19;;;;;;;2.58;2.30;;;;;;;;;;5029153;28;24434;-47
2022/09/21 10:37:47;;;;;;;2.70;2.50;;;;;;;;;;5031897;28;24973;-46
2022/09/21 10:40:18;;;;;;;2.95;2.10;;;;;;;;;;5049176;28;24479;-46
2022/09/21 10:42:43;;;;;;;1.90;1.80;;;;;;;;;;5048922;28;24410;-46
2022/09/21 10:45:13;;;;;;;2.10;1.90;;;;;;;;;;5048765;28;24442;-46
2022/09/21 10:47:43;;;;;;;1.67;1.57;;;;;;;;;;5047563;28;24793;-46
2022/09/21 10:50:26;;;;;;;1.92;1.77;;;;;;;;;;5049566;28;24391;-47
2022/09/21 10:52:55;;;;;;;2.00;1.90;;;;;;;;;;5042346;28;24457;-46
2022/09/21 10:55:22;;;;;;;1.80;1.70;;;;;;;;;;5042352;28;24418;-47
2022/09/21 10:57:48;;;;;;;1.80;1.70;;;;;;;;;;5048769;28;24955;-48
2022/09/21 11:00:34;;;;;;;2.20;1.90;;;;;;;;;;5049157;28;24407;-47
2022/09/21 11:03:01;;;;;;;1.85;1.55;;;;;;;;;;5047050;28;24774;-47
2022/09/21 11:05:26;;;;;;;1.80;1.70;;;;;;;;;;5033031;28;24423;-47
2022/09/21 11:08:18;;;;;;;2.43;1.90;;;;;;;;;;5046612;28;24990;-47
2022/09/21 11:10:52;;;;;;;2.13;2.03;;;;;;;;;;5048138;28;24462;-47
2022/09/21 11:13:36;;;;;;;2.47;2.00;;;;;;;;;;5048678;28;24681;-47
2022/09/21 11:16:09;;;;;;;2.10;2.00;;;;;;;;;;5046514;28;24428;-47
2022/09/21 11:18:34;;;;;;;2.00;1.90;;;;;;;;;;5048670;28;24766;-47
2022/09/21 11:21:12;;;;;;;2.22;2.00;;;;;;;;;;5047987;28;24953;-47
2022/09/21 11:23:37;;;;;;;1.65;1.55;;;;;;;;;;5048138;28;24414;-47
2022/09/21 11:26:09;;;;;;;2.10;1.90;;;;;;;;;;5036181;28;24527;-47
2022/09/21 11:28:42;;;;;;;2.20;1.50;;;;;;;;;;5028148;28;24396;-48
2022/09/21 11:31:24;;;;;;;1.80;1.70;;;;;;;;;;5027957;28;24420;-47
2022/09/21 11:34:03;;;;;;;1.80;1.60;;;;;;;;;;5028408;28;24402;-47
2022/09/21 11:36:40;;;;;;;1.40;1.30;;;;;;;;;;5028810;28;24803;-46
2022/09/21 11:39:13;;;;;;;1.70;1.60;;;;;;;;;;5028267;28;24408;-48
2022/09/21 11:41:41;;;;;;;2.75;1.50;;;;;;;;;;5027928;28;24415;-47
2022/09/21 11:44:18;;;;;;;1.80;1.70;;;;;;;;;;5027981;28;24486;-46
2022/09/21 11:46:58;;;;;;;1.90;1.80;;;;;;;;;;5029443;28;24427;-45
2022/09/21 11:49:39;;;;;;;1.80;1.70;;;;;;;;;;5028383;28;24411;-46
2022/09/21 11:52:31;;;;;;;1.52;1.42;;;;;;;;;;5027732;28;24463;-45
2022/09/21 11:55:12;;;;;;;2.03;1.75;;;;;;;;;;5027691;28;24786;-46
2022/09/21 11:57:58;;;;;;;1.45;1.35;;;;;;;;;;5028770;28;24517;-45
2022/09/21 12:00:26;;;;;;;1.70;1.60;;;;;;;;;;5035114;28;24431;-46
2022/09/21 12:03:14;;;;;;;1.90;1.80;;;;;;;;;;5047089;28;24434;-47
2022/09/21 12:05:57;;;;;;;2.00;1.90;;;;;;;;;;5047675;28;24399;-47
2022/09/21 12:08:33;;;;;;;2.53;1.60;;;;;;;;;;5047667;28;24758;-48
2022/09/21 12:11:02;;;;;;;2.20;2.00;;;;;;;;;;5038471;28;24439;-47
2022/09/21 12:13:39;;;;;;;2.10;1.90;;;;;;;;;;5036459;28;24459;-48
2022/09/21 12:16:14;;;;;;;2.63;1.90;;;;;;;;;;5047185;28;24388;-47
2022/09/21 12:18:57;;;;;;;1.50;1.40;;;;;;;;;;5047051;28;24498;-47
2022/09/21 12:21:33;;;;;;;2.00;1.80;;;;;;;;;;5046325;28;24431;-48
2022/09/21 12:24:04;;;;;;;1.95;1.80;;;;;;;;;;5046887;28;24434;-47
2022/09/21 12:26:38;;;;;;;1.50;1.40;;;;;;;;;;5047057;28;24401;-46
2022/09/21 12:29:24;;;;;;;2.10;1.90;;;;;;;;;;5046868;28;24421;-47
2022/09/21 12:31:49;;;;;;;2.00;1.80;;;;;;;;;;5041111;28;24489;-46
2022/09/21 12:34:17;;;;;;;1.80;1.70;;;;;;;;;;5027068;28;24427;-46
2022/09/21 12:36:46;;;;;;;1.60;1.50;;;;;;;;;;5026851;28;24842;-46
2022/09/21 12:39:21;;;;;;;2.20;1.90;;;;;;;;;;5027107;28;24391;-48
2022/09/21 12:41:52;;;;;;;2.60;2.40;;;;;;;;;;5026900;28;24400;-49
2022/09/21 12:44:32;;;;;;;1.80;1.70;;;;;;;;;;5046370;28;24445;-48
2022/09/21 12:47:08;;;;;;;2.00;1.90;;;;;;;;;;5047193;28;24399;-46
2022/09/21 12:49:35;;;;;;;2.20;1.80;;;;;;;;;;5047024;28;24423;-46
2022/09/21 12:52:05;;;;;;;2.10;1.80;;;;;;;;;;5045754;28;24450;-45
2022/09/21 12:54:39;;;;;;;1.77;1.67;;;;;;;;;;5027491;28;24638;-47
2022/09/21 12:57:21;;;;;;;2.20;1.90;;;;;;;;;;5026902;28;24508;-46
2022/09/21 12:59:58;;;;;;;7.65;6.85;;;;;;;;;;5026722;28;24392;-46
2022/09/21 13:02:41;;;;;;;3.40;3.10;;;;;;;;;;5026382;28;24388;-45
2022/09/21 13:05:14;;;;;;;2.00;1.80;;;;;;;;;;5045100;28;24578;-46
2022/09/21 13:07:55;;;;;;;2.05;1.92;;;;;;;;;;5046613;28;24402;-47
2022/09/21 13:10:27;;;;;;;2.40;1.60;;;;;;;;;;5045935;28;24461;-47
2022/09/21 13:13:02;;;;;;;1.60;1.50;;;;;;;;;;5046359;28;24434;-47
2022/09/21 13:15:32;;;;;;;3.85;3.47;;;;;;;;;;5046096;28;24470;-47
2022/09/21 13:18:05;;;;;;;1.73;1.50;;;;;;;;;;5046193;28;24414;-51
2022/09/21 13:20:37;;;;;;;1.70;1.60;;;;;;;;;;5046520;28;24502;-48
2022/09/21 13:23:02;;;;;;;1.60;1.50;;;;;;;;;;5046226;28;24406;-48
2022/09/21 13:25:29;;;;;;;2.87;2.43;;;;;;;;;;5030563;28;24424;-47
2022/09/21 13:28:02;;;;;;;2.47;2.28;;;;;;;;;;5026478;28;25134;-47
2022/09/21 13:30:32;;;;;;;1.90;1.70;;;;;;;;;;5026233;28;25230;-47
2022/09/21 13:32:58;;;;;;;2.10;2.00;;;;;;;;;;5032626;28;24427;-47
2022/09/21 13:35:43;;;;;;;2.53;1.90;;;;;;;;;;5043556;28;24509;-46
2022/09/21 13:38:25;;;;;;;1.70;1.60;;;;;;;;;;5046044;28;24510;-47
2022/09/21 13:41:01;;;;;;;2.40;1.70;;;;;;;;;;5033242;28;24422;-47
2022/09/21 13:43:45;;;;;;;1.75;1.65;;;;;;;;;;5053529;28;24525;-46
2022/09/21 13:46:30;;;;;;;2.40;2.20;;;;;;;;;;5045622;28;24449;-47
2022/09/21 13:48:56;;;;;;;2.00;1.90;;;;;;;;;;5026086;28;24410;-49
2022/09/21 13:51:22;;;;;;;2.10;1.90;;;;;;;;;;5024193;28;24427;-47
2022/09/21 13:53:52;;;;;;;3.30;2.00;;;;;;;;;;5030524;28;24400;-48
2022/09/21 13:56:19;;;;;;;1.95;1.85;;;;;;;;;;5036717;28;24424;-47
2022/09/21 13:58:47;;;;;;;1.80;1.70;;;;;;;;;;5032933;28;24531;-46
2022/09/21 14:01:14;;;;;;;2.30;1.90;;;;;;;;;;5043328;28;25352;-46
2022/09/21 14:03:42;;;;;;;1.80;1.70;;;;;;;;;;5041737;28;25176;-46
2022/09/21 14:06:11;;;;;;;1.90;1.80;;;;;;;;;;5029016;28;24430;-46
2022/09/21 14:08:38;;;;;;;1.90;1.70;;;;;;;;;;5044525;28;24485;-47
2022/09/21 14:11:06;;;;;;;1.67;1.30;;;;;;;;;;5028469;28;25239;-46
2022/09/21 14:13:36;;;;;;;2.05;1.60;;;;;;;;;;5034515;28;24974;-46
2022/09/21 14:16:20;;;;;;;2.50;1.58;;;;;;;;;;5037059;28;24425;-46
2022/09/21 14:18:45;;;;;;;1.70;1.60;;;;;;;;;;5040698;28;24450;-47
2022/09/21 14:21:17;;;;;;;1.55;1.45;;;;;;;;;;5046324;28;24403;-47
2022/09/21 14:24:03;;;;;;;1.38;1.27;;;;;;;;;;5043452;28;24519;-47
2022/09/21 14:26:52;;;;;;;1.70;1.60;;;;;;;;;;5037570;28;24986;-47
2022/09/21 14:29:20;;;;;;;3.83;1.50;;;;;;;;;;5044506;28;24488;-47
2022/09/21 14:31:46;;;;;;;1.90;1.70;;;;;;;;;;5037741;28;24996;-47
2022/09/21 14:34:15;;;;;;;1.88;1.52;;;;;;;;;;5028185;28;24434;-47
2022/09/21 14:36:42;;;;;;;2.30;2.10;;;;;;;;;;5026198;28;24476;-48
2022/09/21 14:39:19;;;;;;;1.70;1.60;;;;;;;;;;5026431;28;24385;-47
2022/09/21 14:41:47;;;;;;;1.70;1.60;;;;;;;;;;5025906;28;24408;-48
2022/09/21 14:44:24;;;;;;;2.20;2.00;;;;;;;;;;5028155;28;25395;-47
2022/09/21 14:47:00;;;;;;;1.60;1.50;;;;;;;;;;5045619;28;24718;-47
2022/09/21 14:49:28;;;;;;;1.90;1.80;;;;;;;;;;5045956;28;24514;-47
2022/09/21 14:51:56;;;;;;;2.30;2.20;;;;;;;;;;5028642;28;24439;-47
2022/09/21 14:54:21;;;;;;;2.05;1.95;;;;;;;;;;5025390;28;24461;-47
2022/09/21 14:56:50;;;;;;;1.70;1.60;;;;;;;;;;5025060;28;24441;-47
2022/09/21 14:59:15;;;;;;;1.92;1.83;;;;;;;;;;5028093;28;25040;-47
2022/09/21 15:04:51;;;;;;;1.70;1.60;;;;;;;;;;5044964;28;25339;-47